sensor_id;sensor_type;location;lat;lon;timestamp;P1;durP1;ratioP1;P2;durP2;ratioP2
46613;SDS011;32338;50.430;6.806;2024-01-16T00:02:08;7.82;;;3.40;;
46613;SDS011;32338;50.430;6.806;2024-01-16T00:04:37;6.25;;;4.57;;
46613;SDS011;32338;50.430;6.806;2024-01-16T00:07:05;13.43;;;4.47;;
46613;SDS011;32338;50.430;6.806;2024-01-16T00:09:32;8.00;;;3.72;;
46613;SDS011;32338;50.430;6.806;2024-01-16T00:11:59;9.57;;;3.83;;
46613;SDS011;32338;50.430;6.806;2024-01-16T00:14:26;8.98;;;4.03;;
46613;SDS011;32338;50.430;6.806;2024-01-16T00:16:53;8.55;;;4.03;;
46613;SDS011;32338;50.430;6.806;2024-01-16T00:19:19;10.70;;;4.05;;
46613;SDS011;32338;50.430;6.806;2024-01-16T00:21:47;8.48;;;3.53;;
46613;SDS011;32338;50.430;6.806;2024-01-16T00:24:14;6.45;;;3.92;;
46613;SDS011;32338;50.430;6.806;2024-01-16T00:26:41;11.90;;;4.22;;
46613;SDS011;32338;50.430;6.806;2024-01-16T00:29:07;14.85;;;4.28;;
46613;SDS011;32338;50.430;6.806;2024-01-16T00:31:37;7.55;;;4.00;;
46613;SDS011;32338;50.430;6.806;2024-01-16T00:34:03;9.30;;;3.83;;
46613;SDS011;32338;50.430;6.806;2024-01-16T00:36:30;15.20;;;4.50;;
46613;SDS011;32338;50.430;6.806;2024-01-16T00:38:58;11.32;;;4.15;;
46613;SDS011;32338;50.430;6.806;2024-01-16T00:41:25;14.85;;;4.30;;
46613;SDS011;32338;50.430;6.806;2024-01-16T00:43:52;6.85;;;4.25;;
46613;SDS011;32338;50.430;6.806;2024-01-16T00:46:18;9.68;;;4.70;;
46613;SDS011;32338;50.430;6.806;2024-01-16T00:48:45;9.00;;;3.85;;
46613;SDS011;32338;50.430;6.806;2024-01-16T00:51:13;10.98;;;4.25;;
46613;SDS011;32338;50.430;6.806;2024-01-16T00:53:40;14.60;;;4.57;;
46613;SDS011;32338;50.430;6.806;2024-01-16T00:56:08;8.85;;;4.13;;
46613;SDS011;32338;50.430;6.806;2024-01-16T00:58:35;7.82;;;4.40;;
46613;SDS011;32338;50.430;6.806;2024-01-16T01:01:01;9.10;;;4.90;;
46613;SDS011;32338;50.430;6.806;2024-01-16T01:03:28;12.98;;;4.32;;
46613;SDS011;32338;50.430;6.806;2024-01-16T01:05:55;13.88;;;4.07;;
46613;SDS011;32338;50.430;6.806;2024-01-16T01:08:22;12.40;;;4.55;;
46613;SDS011;32338;50.430;6.806;2024-01-16T01:10:49;9.43;;;4.75;;
46613;SDS011;32338;50.430;6.806;2024-01-16T01:13:17;12.45;;;4.78;;
46613;SDS011;32338;50.430;6.806;2024-01-16T01:15:43;16.88;;;4.65;;
46613;SDS011;32338;50.430;6.806;2024-01-16T01:18:09;15.10;;;4.85;;
46613;SDS011;32338;50.430;6.806;2024-01-16T01:20:36;7.65;;;4.20;;
46613;SDS011;32338;50.430;6.806;2024-01-16T01:23:02;5.25;;;3.83;;
46613;SDS011;32338;50.430;6.806;2024-01-16T01:25:29;9.88;;;4.82;;
46613;SDS011;32338;50.430;6.806;2024-01-16T01:27:56;7.72;;;4.63;;
46613;SDS011;32338;50.430;6.806;2024-01-16T01:30:24;7.82;;;4.38;;
46613;SDS011;32338;50.430;6.806;2024-01-16T01:32:50;9.55;;;4.63;;
46613;SDS011;32338;50.430;6.806;2024-01-16T01:35:17;7.63;;;4.45;;
46613;SDS011;32338;50.430;6.806;2024-01-16T01:37:44;16.88;;;5.45;;
46613;SDS011;32338;50.430;6.806;2024-01-16T01:40:11;15.73;;;4.68;;
46613;SDS011;32338;50.430;6.806;2024-01-16T01:42:40;17.38;;;4.78;;
46613;SDS011;32338;50.430;6.806;2024-01-16T01:45:07;9.98;;;5.07;;
46613;SDS011;32338;50.430;6.806;2024-01-16T01:47:36;10.70;;;4.00;;
46613;SDS011;32338;50.430;6.806;2024-01-16T01:50:03;9.35;;;4.63;;
46613;SDS011;32338;50.430;6.806;2024-01-16T01:52:30;6.25;;;4.30;;
46613;SDS011;32338;50.430;6.806;2024-01-16T01:54:58;7.40;;;4.32;;
46613;SDS011;32338;50.430;6.806;2024-01-16T01:57:25;12.20;;;4.65;;
46613;SDS011;32338;50.430;6.806;2024-01-16T01:59:52;7.60;;;3.95;;
46613;SDS011;32338;50.430;6.806;2024-01-16T02:02:19;16.88;;;4.75;;
46613;SDS011;32338;50.430;6.806;2024-01-16T02:04:48;8.98;;;4.63;;
46613;SDS011;32338;50.430;6.806;2024-01-16T02:07:16;13.98;;;4.90;;
46613;SDS011;32338;50.430;6.806;2024-01-16T02:09:43;8.70;;;4.57;;
46613;SDS011;32338;50.430;6.806;2024-01-16T02:12:10;10.07;;;4.63;;
46613;SDS011;32338;50.430;6.806;2024-01-16T02:14:37;8.80;;;4.28;;
46613;SDS011;32338;50.430;6.806;2024-01-16T02:17:03;10.38;;;4.72;;
46613;SDS011;32338;50.430;6.806;2024-01-16T02:19:31;10.23;;;4.93;;
46613;SDS011;32338;50.430;6.806;2024-01-16T02:21:59;8.88;;;4.10;;
46613;SDS011;32338;50.430;6.806;2024-01-16T02:24:31;12.27;;;5.38;;
46613;SDS011;32338;50.430;6.806;2024-01-16T02:26:58;6.25;;;3.97;;
46613;SDS011;32338;50.430;6.806;2024-01-16T02:29:25;7.35;;;4.38;;
46613;SDS011;32338;50.430;6.806;2024-01-16T02:31:51;6.72;;;4.55;;
46613;SDS011;32338;50.430;6.806;2024-01-16T02:34:18;14.60;;;5.22;;
46613;SDS011;32338;50.430;6.806;2024-01-16T02:36:44;10.02;;;4.50;;
46613;SDS011;32338;50.430;6.806;2024-01-16T02:39:11;10.45;;;4.50;;
46613;SDS011;32338;50.430;6.806;2024-01-16T02:41:39;8.18;;;4.28;;
46613;SDS011;32338;50.430;6.806;2024-01-16T02:44:06;6.28;;;4.43;;
46613;SDS011;32338;50.430;6.806;2024-01-16T02:46:32;7.82;;;4.18;;
46613;SDS011;32338;50.430;6.806;2024-01-16T02:48:59;6.13;;;4.05;;
46613;SDS011;32338;50.430;6.806;2024-01-16T02:51:26;11.80;;;5.40;;
46613;SDS011;32338;50.430;6.806;2024-01-16T02:53:52;7.63;;;3.53;;
46613;SDS011;32338;50.430;6.806;2024-01-16T02:56:19;15.48;;;4.50;;
46613;SDS011;32338;50.430;6.806;2024-01-16T02:58:47;5.75;;;4.30;;
46613;SDS011;32338;50.430;6.806;2024-01-16T03:01:13;13.63;;;4.47;;
46613;SDS011;32338;50.430;6.806;2024-01-16T03:03:40;8.70;;;4.28;;
46613;SDS011;32338;50.430;6.806;2024-01-16T03:06:07;7.53;;;4.15;;
46613;SDS011;32338;50.430;6.806;2024-01-16T03:08:34;9.13;;;3.70;;
46613;SDS011;32338;50.430;6.806;2024-01-16T03:11:00;11.15;;;4.10;;
46613;SDS011;32338;50.430;6.806;2024-01-16T03:13:28;8.82;;;4.53;;
46613;SDS011;32338;50.430;6.806;2024-01-16T03:15:55;9.88;;;4.25;;
46613;SDS011;32338;50.430;6.806;2024-01-16T03:18:22;8.30;;;4.93;;
46613;SDS011;32338;50.430;6.806;2024-01-16T03:20:49;8.98;;;5.00;;
46613;SDS011;32338;50.430;6.806;2024-01-16T03:23:15;11.30;;;4.00;;
46613;SDS011;32338;50.430;6.806;2024-01-16T03:25:42;11.68;;;4.40;;
46613;SDS011;32338;50.430;6.806;2024-01-16T03:28:08;11.73;;;3.78;;
46613;SDS011;32338;50.430;6.806;2024-01-16T03:30:35;13.40;;;4.30;;
46613;SDS011;32338;50.430;6.806;2024-01-16T03:33:04;8.10;;;3.90;;
46613;SDS011;32338;50.430;6.806;2024-01-16T03:35:31;10.95;;;4.75;;
46613;SDS011;32338;50.430;6.806;2024-01-16T03:37:58;6.00;;;4.10;;
46613;SDS011;32338;50.430;6.806;2024-01-16T03:40:24;7.07;;;4.28;;
46613;SDS011;32338;50.430;6.806;2024-01-16T03:42:51;9.10;;;4.05;;
46613;SDS011;32338;50.430;6.806;2024-01-16T03:45:18;13.23;;;4.00;;
46613;SDS011;32338;50.430;6.806;2024-01-16T03:47:44;12.32;;;3.92;;
46613;SDS011;32338;50.430;6.806;2024-01-16T03:50:12;7.88;;;4.35;;
46613;SDS011;32338;50.430;6.806;2024-01-16T03:52:39;10.57;;;4.15;;
46613;SDS011;32338;50.430;6.806;2024-01-16T03:55:06;9.10;;;3.90;;
46613;SDS011;32338;50.430;6.806;2024-01-16T03:57:33;8.65;;;3.60;;
46613;SDS011;32338;50.430;6.806;2024-01-16T03:59:59;7.15;;;4.05;;
46613;SDS011;32338;50.430;6.806;2024-01-16T04:02:26;10.30;;;3.67;;
46613;SDS011;32338;50.430;6.806;2024-01-16T04:04:52;8.77;;;3.63;;
46613;SDS011;32338;50.430;6.806;2024-01-16T04:07:20;6.65;;;3.30;;
46613;SDS011;32338;50.430;6.806;2024-01-16T04:09:48;9.15;;;3.50;;
46613;SDS011;32338;50.430;6.806;2024-01-16T04:12:15;6.15;;;3.47;;
46613;SDS011;32338;50.430;6.806;2024-01-16T04:14:42;7.88;;;3.80;;
46613;SDS011;32338;50.430;6.806;2024-01-16T04:17:08;13.50;;;3.78;;
46613;SDS011;32338;50.430;6.806;2024-01-16T04:19:35;6.80;;;3.38;;
46613;SDS011;32338;50.430;6.806;2024-01-16T04:22:01;10.40;;;3.97;;
46613;SDS011;32338;50.430;6.806;2024-01-16T04:24:31;7.43;;;3.55;;
46613;SDS011;32338;50.430;6.806;2024-01-16T04:26:58;4.40;;;2.80;;
46613;SDS011;32338;50.430;6.806;2024-01-16T04:29:24;4.47;;;3.08;;
46613;SDS011;32338;50.430;6.806;2024-01-16T04:31:51;4.70;;;2.92;;
46613;SDS011;32338;50.430;6.806;2024-01-16T04:34:18;14.90;;;4.10;;
46613;SDS011;32338;50.430;6.806;2024-01-16T04:36:44;8.80;;;3.88;;
46613;SDS011;32338;50.430;6.806;2024-01-16T04:39:11;10.98;;;3.25;;
46613;SDS011;32338;50.430;6.806;2024-01-16T04:41:40;6.57;;;3.05;;
46613;SDS011;32338;50.430;6.806;2024-01-16T04:44:06;7.28;;;3.25;;
46613;SDS011;32338;50.430;6.806;2024-01-16T04:46:33;5.47;;;3.40;;
46613;SDS011;32338;50.430;6.806;2024-01-16T04:49:00;9.50;;;3.20;;
46613;SDS011;32338;50.430;6.806;2024-01-16T04:51:27;8.52;;;3.10;;
46613;SDS011;32338;50.430;6.806;2024-01-16T04:53:53;8.02;;;3.63;;
46613;SDS011;32338;50.430;6.806;2024-01-16T04:56:20;7.18;;;2.92;;
46613;SDS011;32338;50.430;6.806;2024-01-16T04:58:48;6.20;;;3.22;;
46613;SDS011;32338;50.430;6.806;2024-01-16T05:01:15;6.55;;;2.78;;
46613;SDS011;32338;50.430;6.806;2024-01-16T05:03:41;8.93;;;2.50;;
46613;SDS011;32338;50.430;6.806;2024-01-16T05:06:12;4.78;;;3.03;;
46613;SDS011;32338;50.430;6.806;2024-01-16T05:08:39;11.63;;;2.97;;
46613;SDS011;32338;50.430;6.806;2024-01-16T05:11:06;6.20;;;2.95;;
46613;SDS011;32338;50.430;6.806;2024-01-16T05:13:33;5.30;;;2.80;;
46613;SDS011;32338;50.430;6.806;2024-01-16T05:16:01;6.85;;;3.03;;
46613;SDS011;32338;50.430;6.806;2024-01-16T05:18:28;12.48;;;2.72;;
46613;SDS011;32338;50.430;6.806;2024-01-16T05:20:54;6.45;;;2.65;;
46613;SDS011;32338;50.430;6.806;2024-01-16T05:23:21;4.82;;;2.35;;
46613;SDS011;32338;50.430;6.806;2024-01-16T05:25:47;6.53;;;2.78;;
46613;SDS011;32338;50.430;6.806;2024-01-16T05:28:14;7.57;;;2.45;;
46613;SDS011;32338;50.430;6.806;2024-01-16T05:30:41;4.57;;;2.30;;
46613;SDS011;32338;50.430;6.806;2024-01-16T05:33:09;9.18;;;2.20;;
46613;SDS011;32338;50.430;6.806;2024-01-16T05:35:35;3.10;;;2.00;;
46613;SDS011;32338;50.430;6.806;2024-01-16T05:38:02;8.52;;;2.40;;
46613;SDS011;32338;50.430;6.806;2024-01-16T05:40:29;6.75;;;1.98;;
46613;SDS011;32338;50.430;6.806;2024-01-16T05:42:56;5.25;;;2.13;;
46613;SDS011;32338;50.430;6.806;2024-01-16T05:45:23;6.53;;;1.85;;
46613;SDS011;32338;50.430;6.806;2024-01-16T05:47:49;3.70;;;1.48;;
46613;SDS011;32338;50.430;6.806;2024-01-16T05:50:17;4.93;;;1.88;;
46613;SDS011;32338;50.430;6.806;2024-01-16T05:52:44;6.18;;;2.55;;
46613;SDS011;32338;50.430;6.806;2024-01-16T05:55:10;5.78;;;2.10;;
46613;SDS011;32338;50.430;6.806;2024-01-16T05:57:37;5.60;;;2.30;;
46613;SDS011;32338;50.430;6.806;2024-01-16T06:00:04;4.78;;;2.03;;
46613;SDS011;32338;50.430;6.806;2024-01-16T06:02:31;9.73;;;2.33;;
46613;SDS011;32338;50.430;6.806;2024-01-16T06:04:58;11.63;;;2.33;;
46613;SDS011;32338;50.430;6.806;2024-01-16T06:07:26;6.95;;;2.10;;
46613;SDS011;32338;50.430;6.806;2024-01-16T06:09:52;8.65;;;1.92;;
46613;SDS011;32338;50.430;6.806;2024-01-16T06:12:19;3.67;;;2.05;;
46613;SDS011;32338;50.430;6.806;2024-01-16T06:14:46;16.10;;;3.05;;
46613;SDS011;32338;50.430;6.806;2024-01-16T06:17:12;7.13;;;2.50;;
46613;SDS011;32338;50.430;6.806;2024-01-16T06:19:39;7.60;;;2.80;;
46613;SDS011;32338;50.430;6.806;2024-01-16T06:22:05;10.27;;;2.63;;
46613;SDS011;32338;50.430;6.806;2024-01-16T06:24:35;4.38;;;2.20;;
46613;SDS011;32338;50.430;6.806;2024-01-16T06:27:03;7.05;;;2.58;;
46613;SDS011;32338;50.430;6.806;2024-01-16T06:29:30;8.07;;;2.90;;
46613;SDS011;32338;50.430;6.806;2024-01-16T06:31:57;5.07;;;2.22;;
46613;SDS011;32338;50.430;6.806;2024-01-16T06:34:24;8.55;;;2.28;;
46613;SDS011;32338;50.430;6.806;2024-01-16T06:36:50;5.57;;;1.77;;
46613;SDS011;32338;50.430;6.806;2024-01-16T06:39:17;8.38;;;2.60;;
46613;SDS011;32338;50.430;6.806;2024-01-16T06:41:45;11.93;;;2.83;;
46613;SDS011;32338;50.430;6.806;2024-01-16T06:44:11;6.00;;;2.65;;
46613;SDS011;32338;50.430;6.806;2024-01-16T06:46:38;9.70;;;2.42;;
46613;SDS011;32338;50.430;6.806;2024-01-16T06:49:04;4.35;;;2.15;;
46613;SDS011;32338;50.430;6.806;2024-01-16T06:51:31;3.53;;;1.95;;
46613;SDS011;32338;50.430;6.806;2024-01-16T06:53:58;5.25;;;2.35;;
46613;SDS011;32338;50.430;6.806;2024-01-16T06:56:24;4.75;;;2.10;;
46613;SDS011;32338;50.430;6.806;2024-01-16T06:58:52;15.18;;;2.30;;
46613;SDS011;32338;50.430;6.806;2024-01-16T07:01:19;7.63;;;2.50;;
46613;SDS011;32338;50.430;6.806;2024-01-16T07:03:46;10.18;;;2.65;;
46613;SDS011;32338;50.430;6.806;2024-01-16T07:06:12;5.68;;;2.42;;
46613;SDS011;32338;50.430;6.806;2024-01-16T07:08:39;6.15;;;2.10;;
46613;SDS011;32338;50.430;6.806;2024-01-16T07:11:06;8.90;;;2.28;;
46613;SDS011;32338;50.430;6.806;2024-01-16T07:13:33;8.85;;;2.72;;
46613;SDS011;32338;50.430;6.806;2024-01-16T07:16:01;6.85;;;2.40;;
46613;SDS011;32338;50.430;6.806;2024-01-16T07:18:29;17.98;;;3.83;;
46613;SDS011;32338;50.430;6.806;2024-01-16T07:20:55;7.80;;;3.72;;
46613;SDS011;32338;50.430;6.806;2024-01-16T07:23:22;11.90;;;2.67;;
46613;SDS011;32338;50.430;6.806;2024-01-16T07:25:48;6.03;;;2.65;;
46613;SDS011;32338;50.430;6.806;2024-01-16T07:28:15;6.90;;;2.53;;
46613;SDS011;32338;50.430;6.806;2024-01-16T07:30:42;7.32;;;2.75;;
46613;SDS011;32338;50.430;6.806;2024-01-16T07:33:10;8.88;;;2.40;;
46613;SDS011;32338;50.430;6.806;2024-01-16T07:35:36;7.95;;;3.20;;
46613;SDS011;32338;50.430;6.806;2024-01-16T07:38:06;15.85;;;6.25;;
46613;SDS011;32338;50.430;6.806;2024-01-16T07:40:33;14.60;;;5.07;;
46613;SDS011;32338;50.430;6.806;2024-01-16T07:42:59;6.38;;;3.72;;
46613;SDS011;32338;50.430;6.806;2024-01-16T07:45:26;5.28;;;3.10;;
46613;SDS011;32338;50.430;6.806;2024-01-16T07:47:52;11.18;;;3.40;;
46613;SDS011;32338;50.430;6.806;2024-01-16T07:50:20;8.63;;;3.17;;
46613;SDS011;32338;50.430;6.806;2024-01-16T07:52:47;15.45;;;3.00;;
46613;SDS011;32338;50.430;6.806;2024-01-16T07:55:13;8.40;;;3.13;;
46613;SDS011;32338;50.430;6.806;2024-01-16T07:57:40;4.93;;;2.50;;
46613;SDS011;32338;50.430;6.806;2024-01-16T08:00:07;8.88;;;2.50;;
46613;SDS011;32338;50.430;6.806;2024-01-16T08:02:36;4.03;;;2.38;;
46613;SDS011;32338;50.430;6.806;2024-01-16T08:05:04;9.23;;;2.67;;
46613;SDS011;32338;50.430;6.806;2024-01-16T08:07:32;6.18;;;2.47;;
46613;SDS011;32338;50.430;6.806;2024-01-16T08:09:59;8.70;;;2.42;;
46613;SDS011;32338;50.430;6.806;2024-01-16T08:12:26;4.80;;;2.15;;
46613;SDS011;32338;50.430;6.806;2024-01-16T08:14:53;9.85;;;3.10;;
46613;SDS011;32338;50.430;6.806;2024-01-16T08:17:19;6.80;;;2.55;;
46613;SDS011;32338;50.430;6.806;2024-01-16T08:19:46;8.73;;;2.30;;
46613;SDS011;32338;50.430;6.806;2024-01-16T08:22:13;5.97;;;2.13;;
46613;SDS011;32338;50.430;6.806;2024-01-16T08:24:41;9.63;;;2.63;;
46613;SDS011;32338;50.430;6.806;2024-01-16T08:27:08;14.13;;;2.58;;
46613;SDS011;32338;50.430;6.806;2024-01-16T08:29:34;4.03;;;2.10;;
46613;SDS011;32338;50.430;6.806;2024-01-16T08:32:01;9.07;;;2.15;;
46613;SDS011;32338;50.430;6.806;2024-01-16T08:34:27;8.27;;;1.88;;
46613;SDS011;32338;50.430;6.806;2024-01-16T08:36:54;4.10;;;2.45;;
46613;SDS011;32338;50.430;6.806;2024-01-16T08:39:22;5.45;;;2.70;;
46613;SDS011;32338;50.430;6.806;2024-01-16T08:41:50;14.15;;;2.63;;
46613;SDS011;32338;50.430;6.806;2024-01-16T08:44:17;8.98;;;2.92;;
46613;SDS011;32338;50.430;6.806;2024-01-16T08:46:44;6.05;;;2.65;;
46613;SDS011;32338;50.430;6.806;2024-01-16T08:49:11;8.13;;;2.40;;
46613;SDS011;32338;50.430;6.806;2024-01-16T08:51:39;9.68;;;2.60;;
46613;SDS011;32338;50.430;6.806;2024-01-16T08:54:06;7.25;;;2.40;;
46613;SDS011;32338;50.430;6.806;2024-01-16T08:56:33;9.50;;;2.47;;
46613;SDS011;32338;50.430;6.806;2024-01-16T08:59:01;3.08;;;2.55;;
46613;SDS011;32338;50.430;6.806;2024-01-16T09:01:27;7.63;;;2.90;;
46613;SDS011;32338;50.430;6.806;2024-01-16T09:03:54;13.52;;;2.70;;
46613;SDS011;32338;50.430;6.806;2024-01-16T09:06:20;5.95;;;2.13;;
46613;SDS011;32338;50.430;6.806;2024-01-16T09:08:47;7.03;;;2.28;;
46613;SDS011;32338;50.430;6.806;2024-01-16T09:11:14;6.15;;;2.03;;
46613;SDS011;32338;50.430;6.806;2024-01-16T09:13:40;6.50;;;2.42;;
46613;SDS011;32338;50.430;6.806;2024-01-16T09:16:08;10.77;;;2.88;;
46613;SDS011;32338;50.430;6.806;2024-01-16T09:18:35;7.20;;;2.40;;
46613;SDS011;32338;50.430;6.806;2024-01-16T09:21:01;7.13;;;2.00;;
46613;SDS011;32338;50.430;6.806;2024-01-16T09:23:28;9.13;;;2.45;;
46613;SDS011;32338;50.430;6.806;2024-01-16T09:25:55;7.25;;;2.08;;
46613;SDS011;32338;50.430;6.806;2024-01-16T09:28:21;11.40;;;2.40;;
46613;SDS011;32338;50.430;6.806;2024-01-16T09:30:49;6.70;;;2.53;;
46613;SDS011;32338;50.430;6.806;2024-01-16T09:33:17;6.18;;;2.25;;
46613;SDS011;32338;50.430;6.806;2024-01-16T09:35:44;4.15;;;2.28;;
46613;SDS011;32338;50.430;6.806;2024-01-16T09:38:10;6.15;;;2.20;;
46613;SDS011;32338;50.430;6.806;2024-01-16T09:40:37;6.07;;;2.28;;
46613;SDS011;32338;50.430;6.806;2024-01-16T09:43:03;5.72;;;1.90;;
46613;SDS011;32338;50.430;6.806;2024-01-16T09:45:30;4.00;;;1.95;;
46613;SDS011;32338;50.430;6.806;2024-01-16T09:47:59;3.97;;;2.15;;
46613;SDS011;32338;50.430;6.806;2024-01-16T09:50:28;8.93;;;1.90;;
46613;SDS011;32338;50.430;6.806;2024-01-16T09:52:55;8.63;;;2.08;;
46613;SDS011;32338;50.430;6.806;2024-01-16T09:55:21;6.60;;;1.88;;
46613;SDS011;32338;50.430;6.806;2024-01-16T09:57:49;8.10;;;1.85;;
46613;SDS011;32338;50.430;6.806;2024-01-16T10:00:18;6.50;;;2.03;;
46613;SDS011;32338;50.430;6.806;2024-01-16T10:02:45;11.52;;;1.90;;
46613;SDS011;32338;50.430;6.806;2024-01-16T10:05:13;6.47;;;1.48;;
46613;SDS011;32338;50.430;6.806;2024-01-16T10:07:41;2.30;;;1.50;;
46613;SDS011;32338;50.430;6.806;2024-01-16T10:10:09;5.13;;;1.45;;
46613;SDS011;32338;50.430;6.806;2024-01-16T10:12:37;6.85;;;1.83;;
46613;SDS011;32338;50.430;6.806;2024-01-16T10:15:04;14.00;;;2.15;;
46613;SDS011;32338;50.430;6.806;2024-01-16T10:17:36;4.85;;;1.55;;
46613;SDS011;32338;50.430;6.806;2024-01-16T10:20:04;6.13;;;1.52;;
46613;SDS011;32338;50.430;6.806;2024-01-16T10:22:32;5.55;;;1.35;;
46613;SDS011;32338;50.430;6.806;2024-01-16T10:25:07;6.45;;;1.67;;
46613;SDS011;32338;50.430;6.806;2024-01-16T10:27:35;5.00;;;1.65;;
46613;SDS011;32338;50.430;6.806;2024-01-16T10:30:03;4.60;;;1.55;;
46613;SDS011;32338;50.430;6.806;2024-01-16T10:32:30;9.90;;;1.80;;
46613;SDS011;32338;50.430;6.806;2024-01-16T10:35:01;5.15;;;1.42;;
46613;SDS011;32338;50.430;6.806;2024-01-16T10:37:29;3.55;;;1.08;;
46613;SDS011;32338;50.430;6.806;2024-01-16T10:39:56;9.85;;;1.83;;
46613;SDS011;32338;50.430;6.806;2024-01-16T10:42:24;7.45;;;1.75;;
46613;SDS011;32338;50.430;6.806;2024-01-16T10:44:53;4.32;;;1.50;;
46613;SDS011;32338;50.430;6.806;2024-01-16T10:47:21;2.95;;;1.17;;
46613;SDS011;32338;50.430;6.806;2024-01-16T10:49:48;4.82;;;1.00;;
46613;SDS011;32338;50.430;6.806;2024-01-16T10:52:14;6.57;;;1.55;;
46613;SDS011;32338;50.430;6.806;2024-01-16T10:54:44;12.30;;;1.50;;
46613;SDS011;32338;50.430;6.806;2024-01-16T10:57:15;5.10;;;1.50;;
46613;SDS011;32338;50.430;6.806;2024-01-16T10:59:47;4.47;;;1.88;;
46613;SDS011;32338;50.430;6.806;2024-01-16T11:02:22;4.45;;;1.20;;
46613;SDS011;32338;50.430;6.806;2024-01-16T11:04:54;5.35;;;1.58;;
46613;SDS011;32338;50.430;6.806;2024-01-16T11:07:23;6.90;;;1.42;;
46613;SDS011;32338;50.430;6.806;2024-01-16T11:09:51;12.30;;;1.67;;
46613;SDS011;32338;50.430;6.806;2024-01-16T11:12:20;9.45;;;1.40;;
46613;SDS011;32338;50.430;6.806;2024-01-16T11:14:49;5.18;;;1.58;;
46613;SDS011;32338;50.430;6.806;2024-01-16T11:17:18;5.40;;;1.35;;
46613;SDS011;32338;50.430;6.806;2024-01-16T11:19:46;3.72;;;1.50;;
46613;SDS011;32338;50.430;6.806;2024-01-16T11:22:13;5.90;;;1.35;;
46613;SDS011;32338;50.430;6.806;2024-01-16T11:24:42;5.15;;;1.65;;
46613;SDS011;32338;50.430;6.806;2024-01-16T11:27:11;8.02;;;1.83;;
46613;SDS011;32338;50.430;6.806;2024-01-16T11:29:50;3.88;;;1.40;;
46613;SDS011;32338;50.430;6.806;2024-01-16T11:32:32;7.30;;;1.90;;
46613;SDS011;32338;50.430;6.806;2024-01-16T11:34:59;9.75;;;2.33;;
46613;SDS011;32338;50.430;6.806;2024-01-16T11:37:26;4.65;;;1.60;;
46613;SDS011;32338;50.430;6.806;2024-01-16T11:42:49;10.52;;;2.45;;
46613;SDS011;32338;50.430;6.806;2024-01-16T11:48:17;7.82;;;1.70;;
46613;SDS011;32338;50.430;6.806;2024-01-16T11:50:44;9.52;;;2.22;;
46613;SDS011;32338;50.430;6.806;2024-01-16T11:59:08;6.65;;;2.45;;
46613;SDS011;32338;50.430;6.806;2024-01-16T12:01:54;7.85;;;1.80;;
46613;SDS011;32338;50.430;6.806;2024-01-16T12:04:24;6.95;;;2.28;;
46613;SDS011;32338;50.430;6.806;2024-01-16T12:06:59;11.02;;;2.65;;
46613;SDS011;32338;50.430;6.806;2024-01-16T12:09:26;4.75;;;2.63;;
46613;SDS011;32338;50.430;6.806;2024-01-16T12:11:57;11.52;;;2.70;;
46613;SDS011;32338;50.430;6.806;2024-01-16T12:14:26;4.95;;;2.13;;
46613;SDS011;32338;50.430;6.806;2024-01-16T12:16:54;8.65;;;2.28;;
46613;SDS011;32338;50.430;6.806;2024-01-16T12:19:34;5.25;;;2.20;;
46613;SDS011;32338;50.430;6.806;2024-01-16T12:22:01;8.00;;;2.88;;
46613;SDS011;32338;50.430;6.806;2024-01-16T12:24:28;4.70;;;2.50;;
46613;SDS011;32338;50.430;6.806;2024-01-16T12:26:57;7.88;;;2.28;;
46613;SDS011;32338;50.430;6.806;2024-01-16T12:29:23;12.32;;;2.60;;
46613;SDS011;32338;50.430;6.806;2024-01-16T12:31:50;8.18;;;2.58;;
46613;SDS011;32338;50.430;6.806;2024-01-16T12:34:22;8.45;;;3.42;;
46613;SDS011;32338;50.430;6.806;2024-01-16T12:36:48;6.88;;;2.30;;
46613;SDS011;32338;50.430;6.806;2024-01-16T12:39:30;6.80;;;2.47;;
46613;SDS011;32338;50.430;6.806;2024-01-16T12:41:57;10.40;;;2.20;;
46613;SDS011;32338;50.430;6.806;2024-01-16T12:44:26;5.85;;;2.63;;
46613;SDS011;32338;50.430;6.806;2024-01-16T12:46:53;6.95;;;2.60;;
46613;SDS011;32338;50.430;6.806;2024-01-16T12:49:22;7.22;;;2.40;;
46613;SDS011;32338;50.430;6.806;2024-01-16T12:51:48;8.55;;;2.92;;
46613;SDS011;32338;50.430;6.806;2024-01-16T12:54:16;9.63;;;2.60;;
46613;SDS011;32338;50.430;6.806;2024-01-16T12:56:47;9.85;;;2.55;;
46613;SDS011;32338;50.430;6.806;2024-01-16T12:59:14;6.85;;;2.20;;
46613;SDS011;32338;50.430;6.806;2024-01-16T13:01:41;7.10;;;2.20;;
46613;SDS011;32338;50.430;6.806;2024-01-16T13:04:09;4.80;;;2.30;;
46613;SDS011;32338;50.430;6.806;2024-01-16T13:06:37;7.78;;;1.85;;
46613;SDS011;32338;50.430;6.806;2024-01-16T13:09:05;4.45;;;2.42;;
46613;SDS011;32338;50.430;6.806;2024-01-16T13:11:44;5.95;;;2.67;;
46613;SDS011;32338;50.430;6.806;2024-01-16T13:14:12;6.45;;;2.03;;
46613;SDS011;32338;50.430;6.806;2024-01-16T13:16:38;6.00;;;2.33;;
46613;SDS011;32338;50.430;6.806;2024-01-16T13:19:05;5.20;;;2.20;;
46613;SDS011;32338;50.430;6.806;2024-01-16T13:21:35;9.68;;;2.92;;
46613;SDS011;32338;50.430;6.806;2024-01-16T13:24:03;3.83;;;2.00;;
46613;SDS011;32338;50.430;6.806;2024-01-16T13:26:29;5.20;;;2.08;;
46613;SDS011;32338;50.430;6.806;2024-01-16T13:28:57;6.38;;;1.92;;
46613;SDS011;32338;50.430;6.806;2024-01-16T13:31:23;3.90;;;2.30;;
46613;SDS011;32338;50.430;6.806;2024-01-16T13:33:50;4.15;;;2.30;;
46613;SDS011;32338;50.430;6.806;2024-01-16T13:36:16;6.25;;;2.13;;
46613;SDS011;32338;50.430;6.806;2024-01-16T13:38:43;4.50;;;2.30;;
46613;SDS011;32338;50.430;6.806;2024-01-16T13:41:11;13.50;;;2.50;;
46613;SDS011;32338;50.430;6.806;2024-01-16T13:43:38;4.80;;;1.90;;
46613;SDS011;32338;50.430;6.806;2024-01-16T13:46:04;6.97;;;2.05;;
46613;SDS011;32338;50.430;6.806;2024-01-16T13:48:33;3.65;;;1.85;;
46613;SDS011;32338;50.430;6.806;2024-01-16T13:51:00;5.28;;;2.13;;
46613;SDS011;32338;50.430;6.806;2024-01-16T13:53:27;5.78;;;2.60;;
46613;SDS011;32338;50.430;6.806;2024-01-16T13:55:53;7.63;;;2.85;;
46613;SDS011;32338;50.430;6.806;2024-01-16T13:58:21;4.45;;;2.00;;
46613;SDS011;32338;50.430;6.806;2024-01-16T14:00:48;3.58;;;2.17;;
46613;SDS011;32338;50.430;6.806;2024-01-16T14:03:15;6.47;;;2.63;;
46613;SDS011;32338;50.430;6.806;2024-01-16T14:05:42;6.22;;;2.17;;
46613;SDS011;32338;50.430;6.806;2024-01-16T14:08:08;10.13;;;4.43;;
46613;SDS011;32338;50.430;6.806;2024-01-16T14:10:37;9.55;;;4.25;;
46613;SDS011;32338;50.430;6.806;2024-01-16T14:13:04;5.88;;;2.50;;
46613;SDS011;32338;50.430;6.806;2024-01-16T14:15:32;5.70;;;2.53;;
46613;SDS011;32338;50.430;6.806;2024-01-16T14:17:59;4.80;;;2.22;;
46613;SDS011;32338;50.430;6.806;2024-01-16T14:20:25;5.15;;;1.90;;
46613;SDS011;32338;50.430;6.806;2024-01-16T14:22:52;6.25;;;2.60;;
46613;SDS011;32338;50.430;6.806;2024-01-16T14:25:19;4.68;;;2.55;;
46613;SDS011;32338;50.430;6.806;2024-01-16T14:27:48;6.85;;;2.03;;
46613;SDS011;32338;50.430;6.806;2024-01-16T14:32:51;6.65;;;2.00;;
46613;SDS011;32338;50.430;6.806;2024-01-16T14:35:18;7.47;;;2.28;;
46613;SDS011;32338;50.430;6.806;2024-01-16T14:37:45;5.55;;;1.95;;
46613;SDS011;32338;50.430;6.806;2024-01-16T14:40:12;2.25;;;1.63;;
46613;SDS011;32338;50.430;6.806;2024-01-16T14:42:41;10.50;;;1.88;;
46613;SDS011;32338;50.430;6.806;2024-01-16T14:45:09;4.47;;;2.00;;
46613;SDS011;32338;50.430;6.806;2024-01-16T14:47:37;6.35;;;2.13;;
46613;SDS011;32338;50.430;6.806;2024-01-16T14:50:05;8.70;;;2.10;;
46613;SDS011;32338;50.430;6.806;2024-01-16T14:52:34;7.50;;;2.35;;
46613;SDS011;32338;50.430;6.806;2024-01-16T14:55:01;6.38;;;1.90;;
46613;SDS011;32338;50.430;6.806;2024-01-16T14:57:28;8.27;;;1.95;;
46613;SDS011;32338;50.430;6.806;2024-01-16T14:59:56;9.85;;;1.73;;
46613;SDS011;32338;50.430;6.806;2024-01-16T15:02:23;4.70;;;1.95;;